Schedule Details

Flight Number: ASX306X
Departure: Dublin (EIDW) at 12:00Z
Arrival: Gdansk im. Lecha Walesy (EPGD) at 15:00Z

Weather Information
EIDW 180630Z 14008KT 2000 BR FEW001 BKN003 06/06 Q1017 NOSIG
EPGD 180630Z 29002KT 8000 SCT041 M03/M04 Q1026

Schedule Frequency

Route Map